createdAt,value
2022-12-09T00:01:21.554Z,14.23
2022-12-09T00:04:09.234Z,17.48
2022-12-09T00:06:57.967Z,17.05
2022-12-09T00:09:45.408Z,19.13
2022-12-09T00:12:32.823Z,17.05
2022-12-09T00:15:20.536Z,17.63
2022-12-09T00:18:08.038Z,15.80
2022-12-09T00:20:55.627Z,17.13
2022-12-09T00:23:44.394Z,15.95
2022-12-09T00:26:32.599Z,16.88
2022-12-09T00:29:20.192Z,17.33
2022-12-09T00:32:07.824Z,17.83
2022-12-09T00:34:55.795Z,18.10
2022-12-09T00:37:43.778Z,18.67
2022-12-09T00:40:32.993Z,18.13
2022-12-09T00:43:20.388Z,18.00
2022-12-09T00:46:08.236Z,18.88
2022-12-09T00:48:56.317Z,17.10
2022-12-09T00:51:44.062Z,17.73
2022-12-09T00:54:31.994Z,19.02
2022-12-09T00:57:20.988Z,17.33
2022-12-09T01:00:10.421Z,17.77
2022-12-09T01:02:59.309Z,17.05
2022-12-09T01:05:47.512Z,17.20
2022-12-09T01:08:38.468Z,17.50
2022-12-09T01:11:29.053Z,18.52
2022-12-09T01:14:17.977Z,17.90
2022-12-09T01:17:05.818Z,18.20
2022-12-09T01:19:53.280Z,17.88
2022-12-09T01:22:40.959Z,18.10
2022-12-09T01:25:28.488Z,18.58
2022-12-09T01:28:16.236Z,17.08
2022-12-09T01:31:10.783Z,16.23
2022-12-09T01:33:58.679Z,16.25
2022-12-09T01:36:47.870Z,16.48
2022-12-09T01:39:35.718Z,16.13
2022-12-09T01:42:26.259Z,16.80
2022-12-09T01:45:42.902Z,13.52
2022-12-09T01:48:34.993Z,15.65
2022-12-09T01:51:24.601Z,15.32
2022-12-09T01:54:12.618Z,14.68
2022-12-09T01:57:00.585Z,14.43
2022-12-09T01:59:48.480Z,14.43
2022-12-09T02:02:38.244Z,13.45
2022-12-09T02:05:28.292Z,13.73
2022-12-09T02:08:20.689Z,13.73
2022-12-09T02:11:18.425Z,13.30
2022-12-09T02:14:14.612Z,13.43
2022-12-09T02:17:22.681Z,13.40
2022-12-09T02:20:20.500Z,15.02
2022-12-09T02:23:15.228Z,13.93
2022-12-09T02:26:12.538Z,13.77
2022-12-09T02:29:41.821Z,13.52
2022-12-09T02:33:07.143Z,14.75
2022-12-09T02:35:59.156Z,14.43
2022-12-09T02:38:50.664Z,13.30
2022-12-09T02:41:43.071Z,13.73
2022-12-09T02:44:32.523Z,15.07
2022-12-09T02:47:22.532Z,13.18
2022-12-09T02:50:14.898Z,14.02
2022-12-09T02:53:09.910Z,15.05
2022-12-09T02:56:00.005Z,16.13
2022-12-09T02:58:53.456Z,15.88
2022-12-09T03:01:51.107Z,15.23
2022-12-09T03:04:42.227Z,15.95
2022-12-09T03:07:40.033Z,14.13
2022-12-09T03:10:35.245Z,14.30
2022-12-09T03:13:41.739Z,13.35
2022-12-09T03:16:34.515Z,14.77
2022-12-09T03:19:27.400Z,15.20
2022-12-09T03:22:18.991Z,14.68
2022-12-09T03:25:11.648Z,14.23
2022-12-09T03:28:03.545Z,14.50
2022-12-09T03:30:53.931Z,13.57
2022-12-09T03:33:43.631Z,15.25
2022-12-09T03:36:37.811Z,14.50
2022-12-09T03:39:28.477Z,13.98
2022-12-09T03:42:21.318Z,15.27
2022-12-09T03:45:13.140Z,15.05
2022-12-09T03:48:01.368Z,15.50
2022-12-09T03:50:53.470Z,14.48
2022-12-09T03:53:47.351Z,13.77
2022-12-09T03:56:39.188Z,14.15
2022-12-09T03:59:34.310Z,14.48
2022-12-09T04:02:23.820Z,14.48
2022-12-09T04:05:12.584Z,15.10
2022-12-09T04:08:00.614Z,15.25
2022-12-09T04:10:48.475Z,15.68
2022-12-09T04:13:36.175Z,15.70
2022-12-09T04:16:23.750Z,14.93
2022-12-09T04:19:13.682Z,15.50
2022-12-09T04:22:01.377Z,14.73
2022-12-09T04:24:49.214Z,13.65
2022-12-09T04:27:36.896Z,13.52
2022-12-09T04:30:24.745Z,12.70
2022-12-09T04:33:12.662Z,14.93
2022-12-09T04:36:07.500Z,14.68
2022-12-09T04:38:55.413Z,13.80
2022-12-09T04:41:43.588Z,13.73
2022-12-09T04:44:31.576Z,15.60
2022-12-09T04:47:19.094Z,15.38
2022-12-09T04:50:08.491Z,16.08
2022-12-09T04:52:58.488Z,14.98
2022-12-09T04:55:46.185Z,15.55
2022-12-09T04:58:33.730Z,17.27
2022-12-09T05:01:30.170Z,16.60
2022-12-09T05:04:18.887Z,15.00
2022-12-09T05:07:07.011Z,16.33
2022-12-09T05:09:58.194Z,18.48
2022-12-09T05:12:46.438Z,16.40
2022-12-09T05:15:34.369Z,17.83
2022-12-09T05:18:22.488Z,23.90
2022-12-09T05:21:11.975Z,23.35
2022-12-09T05:23:59.739Z,22.55
2022-12-09T05:26:49.022Z,23.15
2022-12-09T05:29:36.933Z,22.98
2022-12-09T05:32:24.890Z,21.55
2022-12-09T05:35:13.196Z,21.15
2022-12-09T05:38:01.216Z,21.77
2022-12-09T05:40:49.123Z,20.20
2022-12-09T05:43:38.362Z,22.35
2022-12-09T05:46:26.195Z,24.10
2022-12-09T05:49:14.439Z,20.33
2022-12-09T05:52:02.631Z,21.08
2022-12-09T05:54:50.575Z,20.52
2022-12-09T05:57:38.635Z,18.90
2022-12-09T06:00:27.517Z,18.98
2022-12-09T06:03:15.488Z,18.10
2022-12-09T06:06:07.464Z,19.50
2022-12-09T06:08:58.643Z,17.83
2022-12-09T06:11:46.670Z,18.63
2022-12-09T06:14:34.323Z,20.67
2022-12-09T06:17:23.658Z,19.02
2022-12-09T06:20:12.028Z,19.92
2022-12-09T06:23:00.142Z,19.38
2022-12-09T06:25:47.746Z,22.08
2022-12-09T06:28:36.032Z,19.65
2022-12-09T06:31:24.913Z,18.88
2022-12-09T06:34:14.529Z,21.35
2022-12-09T06:37:02.242Z,21.10
2022-12-09T06:39:50.322Z,20.48
2022-12-09T06:42:38.286Z,21.00
2022-12-09T06:45:26.432Z,19.70
2022-12-09T06:48:14.507Z,20.33
2022-12-09T06:51:03.852Z,19.45
2022-12-09T06:53:51.988Z,19.40
2022-12-09T06:56:40.451Z,18.85
2022-12-09T06:59:28.715Z,22.05
2022-12-09T07:02:16.389Z,19.77
2022-12-09T07:05:05.745Z,20.38
2022-12-09T07:07:55.683Z,20.10
2022-12-09T07:10:48.149Z,24.00
2022-12-09T07:13:39.372Z,21.73
2022-12-09T07:16:27.673Z,22.58
2022-12-09T07:19:21.205Z,22.45
2022-12-09T07:22:09.721Z,21.58
2022-12-09T07:24:58.529Z,23.95
2022-12-09T07:27:46.460Z,23.40
2022-12-09T07:30:34.470Z,23.05
2022-12-09T07:33:22.656Z,21.02
2022-12-09T07:36:11.835Z,22.45
2022-12-09T07:39:04.870Z,24.67
2022-12-09T07:41:58.476Z,27.33
2022-12-09T07:44:51.066Z,29.33
2022-12-09T07:47:39.278Z,29.95
2022-12-09T07:50:26.951Z,24.33
2022-12-09T07:53:15.423Z,24.65
2022-12-09T07:56:04.016Z,24.10
2022-12-09T07:58:54.568Z,24.52
2022-12-09T08:01:43.006Z,26.83
2022-12-09T08:04:31.992Z,25.27
2022-12-09T08:07:20.222Z,21.58
2022-12-09T08:10:10.055Z,22.65
2022-12-09T08:12:58.093Z,23.02
2022-12-09T08:15:47.014Z,23.38
2022-12-09T08:18:34.416Z,23.80
2022-12-09T08:21:24.874Z,24.55
2022-12-09T08:24:13.735Z,28.83
2022-12-09T08:27:01.954Z,29.30
2022-12-09T08:29:50.377Z,31.30
2022-12-09T08:32:39.472Z,32.85
2022-12-09T08:35:30.006Z,32.97
2022-12-09T08:38:17.973Z,30.15
2022-12-09T08:41:11.200Z,34.42
2022-12-09T08:43:59.389Z,35.33
2022-12-09T08:46:48.819Z,36.97
2022-12-09T08:49:39.263Z,38.38
2022-12-09T08:52:27.023Z,36.20
2022-12-09T08:55:14.626Z,39.00
2022-12-09T08:58:02.425Z,33.10
2022-12-09T09:00:50.331Z,32.60
2022-12-09T09:03:38.382Z,31.55
2022-12-09T09:06:27.956Z,30.25
2022-12-09T09:09:16.785Z,29.58
2022-12-09T09:12:04.774Z,29.33
2022-12-09T09:14:53.502Z,27.80
2022-12-09T09:17:45.357Z,29.15
2022-12-09T09:20:36.358Z,30.98
2022-12-09T09:23:25.586Z,28.70
2022-12-09T09:26:14.487Z,21.98
2022-12-09T09:29:02.755Z,24.00
2022-12-09T09:31:54.441Z,20.42
2022-12-09T09:34:42.753Z,22.08
2022-12-09T09:37:32.314Z,22.48
2022-12-09T09:40:21.812Z,21.60
2022-12-09T09:43:17.575Z,20.80
2022-12-09T09:46:07.208Z,20.20
2022-12-09T09:48:55.905Z,21.40
2022-12-09T09:51:44.663Z,22.23
2022-12-09T09:54:33.682Z,20.48
2022-12-09T09:57:29.145Z,20.80
2022-12-09T10:00:24.678Z,23.02
2022-12-09T10:03:19.882Z,22.63
2022-12-09T10:06:17.767Z,22.58
2022-12-09T10:09:14.292Z,24.20
2022-12-09T10:12:12.178Z,26.00
2022-12-09T10:15:03.402Z,20.45
2022-12-09T10:17:54.287Z,22.13
2022-12-09T10:20:43.348Z,19.88
2022-12-09T10:23:34.093Z,22.23
2022-12-09T10:26:26.532Z,19.70
2022-12-09T10:29:19.512Z,20.98
2022-12-09T10:32:15.549Z,19.52
2022-12-09T10:35:15.770Z,17.73
2022-12-09T10:38:09.748Z,16.70
2022-12-09T10:41:07.335Z,16.02
2022-12-09T10:44:14.279Z,16.98
2022-12-09T10:49:55.344Z,16.83
2022-12-09T10:52:46.759Z,17.02
2022-12-09T10:55:37.466Z,16.15
2022-12-09T10:58:27.604Z,16.40
2022-12-09T11:01:17.439Z,14.82
2022-12-09T11:04:14.235Z,17.42
2022-12-09T11:10:07.029Z,14.02
2022-12-09T11:12:57.930Z,14.05
2022-12-09T11:15:51.285Z,15.77
2022-12-09T11:18:45.346Z,15.10
2022-12-09T11:21:36.141Z,14.68
2022-12-09T11:24:27.837Z,15.43
2022-12-09T11:27:28.333Z,15.90
2022-12-09T11:30:19.655Z,13.05
2022-12-09T11:33:25.618Z,12.85
2022-12-09T11:36:24.471Z,12.88
2022-12-09T11:39:22.910Z,12.60
2022-12-09T11:42:19.410Z,11.90
2022-12-09T11:51:22.348Z,10.63
2022-12-09T11:54:14.476Z,13.13
2022-12-09T11:57:02.546Z,13.13
2022-12-09T11:59:57.176Z,11.45
2022-12-09T12:02:48.264Z,12.02
2022-12-09T12:05:40.312Z,16.50
2022-12-09T12:08:35.394Z,16.40
2022-12-09T12:11:35.710Z,14.95
2022-12-09T12:14:28.991Z,18.85
2022-12-09T12:17:25.050Z,19.33
2022-12-09T12:20:14.131Z,18.83
2022-12-09T12:23:19.374Z,19.70
2022-12-09T12:26:17.229Z,19.08
2022-12-09T12:29:22.030Z,17.95
2022-12-09T12:32:40.626Z,18.77
2022-12-09T12:35:45.955Z,18.77
2022-12-09T12:38:51.031Z,19.42
2022-12-09T12:41:48.084Z,19.83
2022-12-09T12:45:08.729Z,19.25
2022-12-09T12:48:05.224Z,20.10
2022-12-09T12:51:03.375Z,20.75
2022-12-09T12:54:01.711Z,21.98
2022-12-09T12:56:56.585Z,19.27
2022-12-09T12:59:50.770Z,18.27
2022-12-09T13:02:45.592Z,20.15
2022-12-09T13:05:37.840Z,19.65
2022-12-09T13:08:31.830Z,19.38
2022-12-09T13:11:24.843Z,17.67
2022-12-09T13:14:19.045Z,18.13
2022-12-09T13:17:09.716Z,18.42
2022-12-09T13:20:00.842Z,17.10
2022-12-09T13:22:55.015Z,16.08
2022-12-09T13:25:48.104Z,17.17
2022-12-09T13:28:47.188Z,15.48
2022-12-09T13:31:37.955Z,16.40
2022-12-09T13:34:32.870Z,16.55
2022-12-09T13:37:34.646Z,15.73
2022-12-09T13:40:35.385Z,16.33
2022-12-09T13:43:27.185Z,16.83
2022-12-09T13:46:23.214Z,17.60
2022-12-09T13:49:11.955Z,19.90
2022-12-09T13:51:59.500Z,16.33
2022-12-09T13:54:49.291Z,16.27
2022-12-09T13:57:45.357Z,18.40
2022-12-09T14:00:33.786Z,20.27
2022-12-09T14:03:28.858Z,19.52
2022-12-09T14:06:25.192Z,22.42
2022-12-09T14:09:26.299Z,21.70
2022-12-09T14:12:15.296Z,22.05
2022-12-09T14:15:28.533Z,22.52
2022-12-09T14:18:33.080Z,20.63
2022-12-09T14:21:29.683Z,20.73
2022-12-09T14:27:22.325Z,20.42
2022-12-09T14:30:50.384Z,22.35
2022-12-09T14:36:35.878Z,17.35
2022-12-09T14:39:28.338Z,20.25
2022-12-09T14:42:27.127Z,17.27
2022-12-09T14:45:25.987Z,18.80
2022-12-09T14:48:20.908Z,21.23
2022-12-09T14:51:18.387Z,20.27
2022-12-09T14:54:09.455Z,18.55
2022-12-09T14:57:00.258Z,21.05
2022-12-09T14:59:50.469Z,21.77
2022-12-09T15:02:38.252Z,26.60
2022-12-09T15:05:26.607Z,24.13
2022-12-09T15:08:35.383Z,29.13
2022-12-09T15:11:25.356Z,34.08
2022-12-09T15:14:29.748Z,36.30
2022-12-09T15:17:24.206Z,33.40
2022-12-09T15:20:26.035Z,34.55
2022-12-09T15:23:19.919Z,33.22
2022-12-09T15:26:19.412Z,33.67
2022-12-09T15:29:06.799Z,33.60
2022-12-09T15:31:54.635Z,38.33
2022-12-09T15:34:42.087Z,31.35
2022-12-09T15:37:30.397Z,33.83
2022-12-09T15:40:22.229Z,33.35
2022-12-09T15:43:13.053Z,34.67
2022-12-09T15:46:00.993Z,30.85
2022-12-09T15:48:53.297Z,31.52
2022-12-09T15:51:43.325Z,27.38
2022-12-09T15:54:35.148Z,31.45
2022-12-09T15:57:24.279Z,40.45
2022-12-09T16:00:14.707Z,32.03
2022-12-09T16:03:02.785Z,34.88
2022-12-09T16:05:53.899Z,31.70
2022-12-09T16:08:45.242Z,29.10
2022-12-09T16:11:37.407Z,29.15
2022-12-09T16:14:25.643Z,27.15
2022-12-09T16:17:22.977Z,34.85
2022-12-09T16:20:32.488Z,40.90
2022-12-09T16:23:22.967Z,34.95
2022-12-09T16:26:19.687Z,32.30
2022-12-09T16:29:15.261Z,31.35
2022-12-09T16:32:23.260Z,33.90
2022-12-09T16:35:21.039Z,33.33
2022-12-09T16:38:18.223Z,35.13
2022-12-09T16:43:57.677Z,31.23
2022-12-09T16:46:45.583Z,28.92
2022-12-09T16:49:34.796Z,31.83
2022-12-09T16:52:25.147Z,29.13
2022-12-09T16:55:30.203Z,29.60
2022-12-09T16:58:17.914Z,29.75
2022-12-09T17:01:06.021Z,29.50
2022-12-09T17:03:56.113Z,32.28
2022-12-09T17:06:45.239Z,31.38
2022-12-09T17:09:32.725Z,29.45
2022-12-09T17:12:20.437Z,30.08
2022-12-09T17:15:09.356Z,32.65
2022-12-09T17:17:56.796Z,29.92
2022-12-09T17:20:44.335Z,28.08
2022-12-09T17:23:37.820Z,28.70
2022-12-09T17:26:26.680Z,29.73
2022-12-09T17:29:14.569Z,28.05
2022-12-09T17:32:02.080Z,28.88
2022-12-09T17:34:49.768Z,30.52
2022-12-09T17:37:37.570Z,29.98
2022-12-09T17:40:26.392Z,34.95
2022-12-09T17:43:14.151Z,32.45
2022-12-09T17:46:02.837Z,30.45
2022-12-09T17:48:50.418Z,30.13
2022-12-09T17:51:37.889Z,27.17
2022-12-09T17:54:25.527Z,37.78
2022-12-09T17:57:14.691Z,31.80
2022-12-09T18:00:02.079Z,33.20
2022-12-09T18:02:59.543Z,32.92
2022-12-09T18:05:46.927Z,32.13
2022-12-09T18:08:34.245Z,30.85
2022-12-09T18:11:22.551Z,32.42
2022-12-09T18:14:13.242Z,32.50
2022-12-09T18:17:00.913Z,30.00
2022-12-09T18:19:48.517Z,30.20
2022-12-09T18:22:36.280Z,30.33
2022-12-09T18:25:24.305Z,30.23
2022-12-09T18:28:11.842Z,28.65
2022-12-09T18:31:00.594Z,35.13
2022-12-09T18:33:48.352Z,32.38
2022-12-09T18:36:35.816Z,31.75
2022-12-09T18:39:23.544Z,31.63
2022-12-09T18:42:11.040Z,31.33
2022-12-09T18:44:58.753Z,33.08
2022-12-09T18:47:47.776Z,37.58
2022-12-09T18:50:37.986Z,34.20
2022-12-09T18:53:25.974Z,35.42
2022-12-09T18:56:13.877Z,34.80
2022-12-09T18:59:09.649Z,35.20
2022-12-09T19:01:57.948Z,32.88
2022-12-09T19:04:46.859Z,33.10
2022-12-09T19:07:34.714Z,35.92
2022-12-09T19:10:22.100Z,36.00
2022-12-09T19:13:10.161Z,41.45
2022-12-09T19:15:59.176Z,38.47
2022-12-09T19:18:46.734Z,46.00
2022-12-09T19:21:35.797Z,42.15
2022-12-09T19:24:25.175Z,40.22
2022-12-09T19:27:13.426Z,41.80
2022-12-09T19:30:01.275Z,41.67
2022-12-09T19:32:53.657Z,42.40
2022-12-09T19:35:41.282Z,44.67
2022-12-09T19:38:29.869Z,42.83
2022-12-09T19:41:18.079Z,44.97
2022-12-09T19:44:06.391Z,42.63
2022-12-09T19:46:54.530Z,43.28
2022-12-09T19:49:44.369Z,43.03
2022-12-09T19:52:31.786Z,44.80
2022-12-09T19:55:20.817Z,43.03
2022-12-09T19:58:09.113Z,43.65
2022-12-09T20:00:56.950Z,42.92
2022-12-09T20:03:45.951Z,43.13
2022-12-09T20:06:34.668Z,41.90
2022-12-09T20:09:24.581Z,42.45
2022-12-09T20:12:14.214Z,44.05
2022-12-09T20:15:02.259Z,44.17
2022-12-09T20:17:49.933Z,45.70
2022-12-09T20:20:38.506Z,41.30
2022-12-09T20:23:26.207Z,42.42
2022-12-09T20:26:16.119Z,44.83
2022-12-09T20:29:08.314Z,50.05
2022-12-09T20:31:55.708Z,44.50
2022-12-09T20:34:43.347Z,48.17
2022-12-09T20:37:32.745Z,43.50
2022-12-09T20:40:20.509Z,43.13
2022-12-09T20:43:08.016Z,44.90
2022-12-09T20:45:56.744Z,50.08
2022-12-09T20:48:45.120Z,46.40
2022-12-09T20:51:34.714Z,51.38
2022-12-09T20:54:22.433Z,46.50
2022-12-09T20:57:10.139Z,46.67
2022-12-09T20:59:57.597Z,46.35
2022-12-09T21:02:46.745Z,44.88
2022-12-09T21:05:34.586Z,46.45
2022-12-09T21:08:25.741Z,42.70
2022-12-09T21:11:19.607Z,45.42
2022-12-09T21:14:07.973Z,42.97
2022-12-09T21:16:55.557Z,44.45
2022-12-09T21:19:44.711Z,44.83
2022-12-09T21:22:33.452Z,44.88
2022-12-09T21:25:20.966Z,41.90
2022-12-09T21:28:08.410Z,40.65
2022-12-09T21:30:56.067Z,40.10
2022-12-09T21:33:45.457Z,40.13
2022-12-09T21:36:36.916Z,44.60
2022-12-09T21:39:24.729Z,41.40
2022-12-09T21:42:12.344Z,41.55
2022-12-09T21:44:59.601Z,39.50
2022-12-09T21:47:47.066Z,41.95
2022-12-09T21:50:34.424Z,41.25
2022-12-09T21:53:23.426Z,42.55
2022-12-09T21:56:14.238Z,41.47
2022-12-09T21:59:02.641Z,43.30
2022-12-09T22:01:50.287Z,40.38
2022-12-09T22:04:37.644Z,40.75
2022-12-09T22:07:24.988Z,35.40
2022-12-09T22:10:14.166Z,40.33
2022-12-09T22:13:01.734Z,40.35
2022-12-09T22:15:49.490Z,41.55
2022-12-09T22:18:36.940Z,41.40
2022-12-09T22:21:27.022Z,40.90
2022-12-09T22:24:16.099Z,36.65
2022-12-09T22:27:05.814Z,37.65
2022-12-09T22:29:53.211Z,39.60
2022-12-09T22:32:42.131Z,39.63
2022-12-09T22:35:32.293Z,39.85
2022-12-09T22:38:19.723Z,39.83
2022-12-09T22:41:08.805Z,41.63
2022-12-09T22:43:58.498Z,41.60
2022-12-09T22:46:46.664Z,43.28
2022-12-09T22:49:34.068Z,41.30
2022-12-09T22:52:21.453Z,40.85
2022-12-09T22:55:10.293Z,37.47
2022-12-09T22:57:57.791Z,37.92
2022-12-09T23:00:46.731Z,39.08
2022-12-09T23:03:34.148Z,39.38
2022-12-09T23:06:21.813Z,40.25
2022-12-09T23:09:13.958Z,41.25
2022-12-09T23:12:01.532Z,41.15
2022-12-09T23:14:49.163Z,37.03
2022-12-09T23:17:37.878Z,39.08
2022-12-09T23:20:25.389Z,36.60
2022-12-09T23:23:12.789Z,36.50
2022-12-09T23:26:04.927Z,36.85
2022-12-09T23:28:54.823Z,37.15
2022-12-09T23:31:42.769Z,35.80
2022-12-09T23:34:31.502Z,37.95
2022-12-09T23:37:19.020Z,38.92
2022-12-09T23:40:08.453Z,35.75
2022-12-09T23:42:56.489Z,35.05
2022-12-09T23:45:43.837Z,36.65
2022-12-09T23:48:31.641Z,38.65
2022-12-09T23:51:22.630Z,36.83
2022-12-09T23:54:11.906Z,37.72
2022-12-09T23:56:59.621Z,35.55
2022-12-09T23:59:47.011Z,33.67
